Time;durP1;ratioP1;P1;durP2;ratioP2;P2;SDS_P1;SDS_P2;PMS_P1;PMS_P2;Temp;Humidity;BMP_temperature;BMP_pressure;BME280_temperature;BME280_humidity;BME280_pressure;Samples;Min_cycle;Max_cycle;Signal;HPM_P1;HPM_P2
2022/07/28 00:02:20;;;;;;;22.63;19.88;;;;;;;23.01;63.68;99390.22;5053833;28;20032;-66
2022/07/28 00:04:45;;;;;;;22.80;19.88;;;;;;;23.07;63.62;99378.41;5039866;28;20059;-68
2022/07/28 00:07:11;;;;;;;22.80;20.40;;;;;;;23.13;62.82;99367.66;5032873;28;20053;-65
2022/07/28 00:09:36;;;;;;;22.17;19.33;;;;;;;23.12;63.31;99385.97;5032745;28;20337;-66
2022/07/28 00:12:03;;;;;;;24.10;21.15;;;;;;;23.14;63.00;99385.72;5032982;28;20397;-65
2022/07/28 00:14:29;;;;;;;23.13;20.42;;;;;;;23.13;63.07;99386.78;5048685;28;20473;-66
2022/07/28 00:16:54;;;;;;;22.77;19.25;;;;;;;23.07;63.53;99389.34;5050180;28;20029;-65
2022/07/28 00:19:20;;;;;;;26.10;19.30;;;;;;;22.97;63.89;99382.66;5032363;28;20041;-67
2022/07/28 00:21:46;;;;;;;22.27;19.88;;;;;;;23.01;63.72;99392.94;5032765;28;20044;-64
2022/07/28 00:24:12;;;;;;;24.35;19.50;;;;;;;23.01;63.64;99390.22;5032571;28;20477;-65
2022/07/28 00:26:37;;;;;;;23.50;20.70;;;;;;;23.01;63.56;99389.34;5048101;28;20118;-64
2022/07/28 00:29:04;;;;;;;22.20;19.80;;;;;;;22.91;63.81;99389.84;5052323;28;20060;-65
2022/07/28 00:31:29;;;;;;;21.92;19.55;;;;;;;22.92;64.21;99402.44;5052041;28;20195;-64
2022/07/28 00:33:55;;;;;;;22.10;19.58;;;;;;;22.89;64.16;99392.78;5050689;28;20112;-67
2022/07/28 00:36:20;;;;;;;24.60;20.42;;;;;;;22.89;64.19;99397.38;5048864;28;20037;-66
2022/07/28 00:38:46;;;;;;;23.80;19.63;;;;;;;22.86;64.33;99406.84;5032482;28;20052;-65
2022/07/28 00:41:11;;;;;;;23.83;19.77;;;;;;;22.85;64.29;99393.41;5033283;28;20478;-66
2022/07/28 00:43:42;;;;;;;25.30;20.63;;;;;;;22.89;64.07;99387.31;5032343;28;20078;-66
2022/07/28 00:46:08;;;;;;;26.52;20.38;;;;;;;22.80;64.46;99383.97;5032133;28;20100;-65
2022/07/28 00:48:46;;;;;;;26.00;19.13;;;;;;;22.89;64.69;99400.09;5051135;28;20087;-64
2022/07/28 00:51:13;;;;;;;23.83;19.88;;;;;;;22.77;64.58;99403.53;5033468;28;20041;-65
2022/07/28 00:53:39;;;;;;;22.73;19.00;;;;;;;22.75;64.68;99397.44;5041757;28;20040;-65
2022/07/28 00:56:05;;;;;;;20.42;18.33;;;;;;;22.71;64.52;99395.34;5051810;28;20389;-64
2022/07/28 00:58:31;;;;;;;20.80;18.13;;;;;;;22.68;63.85;99396.63;5052180;28;20150;-65
2022/07/28 01:00:57;;;;;;;20.90;17.15;;;;;;;22.77;62.51;99405.41;5052101;28;20127;-65
2022/07/28 01:03:24;;;;;;;18.85;16.85;;;;;;;22.77;62.61;99399.94;4988286;28;1301814;-65
2022/07/28 01:06:11;;;;;;;18.05;16.27;;;;;;;22.95;61.37;99393.81;5032816;28;20486;-66
2022/07/28 01:09:14;;;;;;;18.35;16.38;;;;;;;22.90;61.73;99388.13;5031649;28;20466;-65
2022/07/28 01:11:50;;;;;;;17.15;15.35;;;;;;;22.66;62.18;99371.44;5033578;28;20141;-65
2022/07/28 01:14:39;;;;;;;19.27;16.50;;;;;;;22.80;62.69;99397.63;5032962;28;20280;-65
2022/07/28 01:17:34;;;;;;;17.83;15.93;;;;;;;22.78;62.08;99391.56;5032955;28;20031;-65
2022/07/28 01:20:15;;;;;;;17.67;15.80;;;;;;;22.76;61.55;99388.19;5032726;28;20385;-65
2022/07/28 01:22:56;;;;;;;18.33;16.08;;;;;;;22.88;61.16;99380.19;5046951;28;20041;-64
2022/07/28 01:25:48;;;;;;;18.48;15.88;;;;;;;22.92;60.84;99386.06;5031091;28;20120;-65
2022/07/28 01:28:32;;;;;;;18.95;15.50;;;;;;;22.75;61.47;99389.25;5032767;28;20029;-66
2022/07/28 01:31:04;;;;;;;18.67;16.65;;;;;;;22.72;61.97;99394.28;5047461;28;20358;-66
2022/07/28 01:33:37;;;;;;;20.15;18.10;;;;;;;22.73;62.52;99390.50;5052146;28;20060;-66
2022/07/28 01:36:10;;;;;;;19.23;17.27;;;;;;;22.69;62.57;99392.00;5052182;28;20098;-66
2022/07/28 01:38:38;;;;;;;23.15;19.02;;;;;;;22.76;61.78;99387.34;5052207;28;20469;-65
2022/07/28 01:41:15;;;;;;;23.98;18.30;;;;;;;22.82;61.58;99381.06;5051206;28;20025;-64
2022/07/28 01:43:43;;;;;;;22.38;17.90;;;;;;;22.77;61.74;99378.09;5030763;28;20539;-65
2022/07/28 01:46:10;;;;;;;22.15;19.58;;;;;;;22.74;61.77;99373.09;5046262;28;20473;-64
2022/07/28 01:48:39;;;;;;;21.60;19.38;;;;;;;22.76;61.73;99371.81;5041718;28;20040;-65
2022/07/28 01:51:06;;;;;;;21.27;19.08;;;;;;;22.80;61.39;99377.72;5032030;28;20087;-64
2022/07/28 01:53:35;;;;;;;22.33;18.67;;;;;;;22.76;61.83;99376.44;5031979;28;20111;-65
2022/07/28 01:56:03;;;;;;;21.95;19.60;;;;;;;22.83;61.68;99376.41;5038776;28;20044;-66
2022/07/28 01:58:30;;;;;;;22.67;20.00;;;;;;;22.90;61.53;99367.16;5041461;28;20402;-66
2022/07/28 02:00:57;;;;;;;22.23;19.88;;;;;;;22.91;61.47;99366.09;5030682;28;20029;-66
2022/07/28 02:03:27;;;;;;;25.85;20.92;;;;;;;22.94;61.35;99373.84;5031811;28;20052;-67
2022/07/28 02:05:54;;;;;;;22.25;19.63;;;;;;;22.85;61.52;99372.44;5031654;28;20204;-67
2022/07/28 02:08:22;;;;;;;25.63;20.55;;;;;;;22.90;61.76;99374.50;5032152;28;20048;-66
2022/07/28 02:13:35;;;;;;;30.15;20.27;;;;;;;23.00;61.17;99372.16;5031487;28;20033;-66
2022/07/28 02:16:05;;;;;;;28.08;19.65;;;;;;;23.02;61.49;99374.66;5032751;28;20033;-65
2022/07/28 02:18:32;;;;;;;24.08;21.05;;;;;;;23.08;61.16;99377.34;5050184;28;20041;-65
2022/07/28 02:20:58;;;;;;;25.48;19.58;;;;;;;23.11;61.03;99375.25;5051572;28;20025;-65
2022/07/28 02:23:26;;;;;;;23.20;20.73;;;;;;;23.21;60.78;99373.72;5051416;28;20109;-66
2022/07/28 02:25:52;;;;;;;22.27;19.92;;;;;;;23.33;60.50;99371.16;5050021;28;20033;-65
2022/07/28 02:28:20;;;;;;;24.15;19.35;;;;;;;23.49;60.21;99368.97;5030304;28;20029;-65
2022/07/28 02:30:53;;;;;;;23.40;20.50;;;;;;;23.71;59.56;99371.34;5031383;28;20037;-65
2022/07/28 02:33:24;;;;;;;23.38;20.25;;;;;;;23.76;59.12;99353.25;5031527;28;20037;-66
2022/07/28 02:35:55;;;;;;;22.90;19.48;;;;;;;23.98;58.69;99350.09;5045943;28;20029;-65
2022/07/28 02:38:24;;;;;;;23.05;19.48;;;;;;;24.31;57.79;99373.59;5051624;28;20108;-66
2022/07/28 02:40:53;;;;;;;22.83;19.88;;;;;;;24.46;57.38;99378.72;5049847;28;20054;-66
2022/07/28 02:43:25;;;;;;;22.90;20.10;;;;;;;24.49;56.98;99353.63;5043229;28;20068;-66
2022/07/28 02:45:54;;;;;;;22.40;20.08;;;;;;;24.73;56.74;99370.19;5034813;28;20025;-65
2022/07/28 02:48:23;;;;;;;24.60;20.40;;;;;;;24.98;55.96;99379.44;5043645;28;20021;-64
2022/07/28 02:50:52;;;;;;;23.48;20.98;;;;;;;25.06;55.74;99382.66;5031062;28;20029;-66
2022/07/28 02:53:21;;;;;;;26.45;20.67;;;;;;;25.20;55.21;99388.84;5036874;28;20025;-65
2022/07/28 02:55:48;;;;;;;26.38;21.70;;;;;;;25.37;55.20;99388.16;5051342;28;20036;-65
2022/07/28 02:58:20;;;;;;;24.10;21.60;;;;;;;25.54;54.49;99380.16;5051146;28;20393;-66
2022/07/28 03:00:48;;;;;;;26.00;20.45;;;;;;;25.55;54.44;99370.03;5049374;28;20067;-65
2022/07/28 03:03:16;;;;;;;24.55;20.38;;;;;;;25.80;53.80;99386.28;5030893;28;20068;-66
2022/07/28 03:05:42;;;;;;;24.67;21.02;;;;;;;25.92;53.17;99384.41;5031155;28;20041;-66
2022/07/28 03:08:08;;;;;;;24.15;19.92;;;;;;;26.04;53.04;99400.03;5030859;28;20088;-67
2022/07/28 03:10:33;;;;;;;25.40;20.20;;;;;;;26.12;53.08;99394.22;5041688;28;20029;-66
2022/07/28 03:12:59;;;;;;;25.63;20.60;;;;;;;26.20;52.16;99393.91;5032631;28;20106;-66
2022/07/28 03:15:25;;;;;;;22.30;19.70;;;;;;;26.31;52.00;99405.94;5031271;28;20030;-68
2022/07/28 03:17:50;;;;;;;22.73;19.67;;;;;;;26.23;52.23;99370.66;5030833;28;20037;-67
2022/07/28 03:20:16;;;;;;;25.58;18.90;;;;;;;26.51;51.62;99391.84;5040183;28;20037;-65
2022/07/28 03:22:41;;;;;;;20.95;18.70;;;;;;;26.72;50.87;99396.97;5050823;28;20044;-66
2022/07/28 03:25:18;;;;;;;22.58;19.48;;;;;;;26.98;50.76;99395.63;5050991;28;20025;-65
2022/07/28 03:27:47;;;;;;;24.10;19.00;;;;;;;27.04;50.43;99400.16;5049411;28;20432;-66
2022/07/28 03:30:15;;;;;;;23.05;19.60;;;;;;;27.13;49.94;99383.28;5041655;28;20497;-66
2022/07/28 03:32:54;;;;;;;22.95;19.83;;;;;;;27.25;49.99;99383.25;5029561;28;20490;-65
2022/07/28 03:35:21;;;;;;;24.95;20.17;;;;;;;27.24;49.76;99387.88;5030757;28;20025;-66
2022/07/28 03:38:09;;;;;;;25.35;20.40;;;;;;;27.41;49.91;99390.72;5030728;28;20111;-66
2022/07/28 03:40:37;;;;;;;22.55;19.70;;;;;;;27.26;49.84;99395.91;5030386;28;20033;-66
2022/07/28 03:43:07;;;;;;;27.55;20.88;;;;;;;27.33;50.05;99402.94;5043038;28;20094;-66
2022/07/28 03:45:36;;;;;;;24.88;19.75;;;;;;;27.53;49.70;99409.94;5050509;28;20063;-65
2022/07/28 03:48:02;;;;;;;24.98;19.45;;;;;;;27.61;49.33;99394.91;5046240;28;20064;-66
2022/07/28 03:50:29;;;;;;;25.20;20.23;;;;;;;27.72;48.88;99401.44;5030776;28;20077;-66
2022/07/28 03:52:56;;;;;;;25.50;20.15;;;;;;;27.81;48.90;99391.72;5048222;28;20025;-66
2022/07/28 03:55:22;;;;;;;26.20;19.60;;;;;;;27.89;48.32;99394.03;5052924;28;20081;-65
2022/07/28 03:57:48;;;;;;;25.23;20.25;;;;;;;28.00;48.44;99395.06;5054087;28;20389;-66
2022/07/28 04:00:15;;;;;;;26.88;20.42;;;;;;;28.15;47.95;99397.25;5053660;28;20029;-66
2022/07/28 04:02:45;;;;;;;22.60;20.20;;;;;;;28.42;47.57;99399.28;5054125;28;20044;-66
2022/07/28 04:05:13;;;;;;;25.80;19.65;;;;;;;28.60;46.98;99397.34;5035880;28;20465;-66
2022/07/28 04:07:39;;;;;;;26.23;19.75;;;;;;;28.77;46.75;99397.28;5047813;28;20473;-67
2022/07/28 04:10:07;;;;;;;26.63;19.77;;;;;;;28.93;46.05;99401.09;5053965;28;20090;-65
2022/07/28 04:12:50;;;;;;;24.90;18.90;;;;;;;29.19;46.01;99399.50;5051810;28;20037;-65
2022/07/28 04:15:17;;;;;;;22.08;19.67;;;;;;;29.11;45.81;99397.22;5040916;28;20544;-67
2022/07/28 04:17:43;;;;;;;21.58;19.05;;;;;;;29.19;45.84;99394.00;5042964;28;20080;-66
2022/07/28 04:20:10;;;;;;;21.63;18.63;;;;;;;29.34;45.81;99400.78;5041165;28;20110;-66
2022/07/28 04:22:36;;;;;;;21.75;18.98;;;;;;;29.69;44.64;99393.97;5042088;28;20036;-65
2022/07/28 04:25:02;;;;;;;23.73;19.08;;;;;;;30.35;43.16;99392.03;5042156;28;20021;-66
2022/07/28 04:27:28;;;;;;;21.98;18.60;;;;;;;30.91;41.97;99388.78;5043527;28;20048;-65
2022/07/28 04:29:54;;;;;;;24.10;18.00;;;;;;;31.03;41.45;99391.31;5041300;28;20100;-66
2022/07/28 04:32:19;;;;;;;24.50;19.23;;;;;;;31.07;41.28;99397.94;5043943;28;20175;-66
2022/07/28 04:34:45;;;;;;;23.38;19.20;;;;;;;31.45;40.40;99402.53;5040157;28;20680;-65
2022/07/28 04:37:11;;;;;;;24.23;18.63;;;;;;;31.92;39.25;99376.59;5043011;28;20116;-65
2022/07/28 04:39:37;;;;;;;23.60;18.23;;;;;;;32.88;38.40;99402.75;5041973;28;20453;-62
2022/07/28 04:42:02;;;;;;;102.88;48.42;;;;;;;34.41;34.80;99397.56;5041441;28;20037;-61
2022/07/28 04:44:28;;;;;;;161.77;65.75;;;;;;;36.05;31.67;99403.22;5039427;28;20026;-61
2022/07/28 04:46:53;;;;;;;269.48;108.10;;;;;;;37.51;29.25;99392.84;5040564;28;20033;-60
2022/07/28 04:49:18;;;;;;;277.05;111.65;;;;;;;38.63;27.54;99390.28;5042041;28;20021;-61
2022/07/28 04:51:48;;;;;;;143.43;66.57;;;;;;;39.56;26.21;99404.31;5042516;28;20026;-61
2022/07/28 04:54:14;;;;;;;140.55;65.95;;;;;;;40.31;24.81;99394.84;5040432;28;20028;-61
2022/07/28 04:56:40;;;;;;;57.95;34.00;;;;;;;41.09;24.01;99399.59;5041275;28;20025;-60
2022/07/28 04:59:05;;;;;;;25.92;21.23;;;;;;;41.75;23.14;99395.31;5041285;28;20136;-60
2022/07/28 05:01:31;;;;;;;127.68;62.33;;;;;;;42.31;22.46;99397.69;5040677;28;20031;-61
2022/07/28 05:03:57;;;;;;;28.02;20.33;;;;;;;42.67;21.67;99400.13;5040706;28;20045;-61
2022/07/28 05:06:22;;;;;;;19.55;17.30;;;;;;;42.82;21.76;99402.22;5040466;28;20029;-60
2022/07/28 05:08:49;;;;;;;18.48;16.38;;;;;;;43.37;20.98;99409.56;5040598;28;20036;-60
2022/07/28 05:11:15;;;;;;;19.67;17.35;;;;;;;43.87;20.37;99421.53;5040053;28;20033;-61
2022/07/28 05:13:41;;;;;;;17.60;15.77;;;;;;;44.34;19.74;99411.50;5040990;28;20386;-60
2022/07/28 05:16:06;;;;;;;17.27;15.75;;;;;;;43.46;20.32;99399.00;5040236;28;20047;-64
2022/07/28 05:18:33;;;;;;;16.70;15.20;;;;;;;41.82;22.18;99406.81;5041157;28;21485;-61
2022/07/28 05:20:58;;;;;;;17.08;15.38;;;;;;;40.98;23.26;99401.97;5041817;28;20031;-61
2022/07/28 05:23:24;;;;;;;16.08;14.70;;;;;;;41.26;22.64;99405.13;5041710;28;20059;-61
2022/07/28 05:25:50;;;;;;;15.32;13.82;;;;;;;42.38;21.33;99405.56;5039693;28;20957;-62
2022/07/28 05:28:15;;;;;;;16.23;14.50;;;;;;;43.57;19.74;99402.94;5041808;28;20037;-61
2022/07/28 05:30:41;;;;;;;15.43;13.93;;;;;;;44.58;18.90;99407.72;5040940;28;20120;-61
2022/07/28 05:33:06;;;;;;;16.75;14.15;;;;;;;45.35;18.03;99395.41;5038658;28;20032;-64
2022/07/28 05:35:32;;;;;;;14.80;13.50;;;;;;;46.08;17.39;99409.78;5037485;28;20029;-63
2022/07/28 05:37:57;;;;;;;14.13;12.63;;;;;;;46.91;16.55;99393.41;5040766;28;20029;-60
2022/07/28 05:40:23;;;;;;;16.98;12.80;;;;;;;47.62;15.76;99391.13;5041562;28;20035;-60
2022/07/28 05:42:48;;;;;;;13.73;12.43;;;;;;;48.42;14.84;99409.84;5039778;28;20385;-61
2022/07/28 05:45:14;;;;;;;13.43;11.30;;;;;;;49.03;14.39;99402.97;5041887;28;20033;-59
2022/07/28 05:47:51;;;;;;;13.38;11.90;;;;;;;49.41;13.96;99412.94;5040735;28;20113;-60
2022/07/28 05:50:18;;;;;;;11.93;11.02;;;;;;;49.87;12.97;99422.09;5039955;28;20433;-61
2022/07/28 05:52:45;;;;;;;11.88;10.68;;;;;;;50.19;13.08;99415.63;5048717;28;20033;-60
2022/07/28 05:55:11;;;;;;;11.27;10.27;;;;;;;50.55;12.85;99412.00;5050476;28;20212;-60
2022/07/28 05:57:38;;;;;;;12.90;10.68;;;;;;;49.54;13.20;99416.28;5039963;28;20506;-59
2022/07/28 06:00:22;;;;;;;11.20;10.02;;;;;;;47.91;15.25;99414.16;5031379;28;20052;-60
2022/07/28 06:02:48;;;;;;;9.90;8.90;;;;;;;46.03;15.66;99410.06;5031645;28;20048;-60
2022/07/28 06:05:16;;;;;;;9.82;8.93;;;;;;;45.06;16.81;99406.84;5034618;28;20052;-60
2022/07/28 06:07:45;;;;;;;11.20;10.07;;;;;;;44.29;17.67;99403.31;5051291;28;20033;-59
2022/07/28 06:10:13;;;;;;;10.43;9.43;;;;;;;43.11;18.12;99391.06;5051234;28;20064;-60
2022/07/28 06:12:43;;;;;;;12.82;10.23;;;;;;;41.77;19.88;99409.84;5051262;28;20123;-61
2022/07/28 06:15:13;;;;;;;11.95;10.88;;;;;;;40.82;21.37;99401.75;5034690;28;20069;-60
2022/07/28 06:17:40;;;;;;;11.40;10.38;;;;;;;39.84;22.37;99408.75;5029416;28;20044;-60
2022/07/28 06:20:06;;;;;;;11.43;10.23;;;;;;;39.53;22.85;99401.34;5031475;28;20027;-62
2022/07/28 06:22:51;;;;;;;11.38;10.27;;;;;;;39.39;23.37;99407.94;5031268;28;20021;-61
2022/07/28 06:25:21;;;;;;;12.85;11.55;;;;;;;38.48;24.82;99400.72;5047563;28;20037;-61
2022/07/28 06:27:48;;;;;;;11.88;10.75;;;;;;;37.69;25.27;99405.78;5039530;28;20041;-61
2022/07/28 06:30:15;;;;;;;10.98;9.85;;;;;;;37.18;25.63;99407.78;5031215;28;20029;-61
2022/07/28 06:32:41;;;;;;;10.65;9.65;;;;;;;36.84;26.08;99395.06;5031895;28;20029;-61
2022/07/28 06:35:08;;;;;;;16.85;9.98;;;;;;;37.31;25.11;99401.31;5031166;28;20037;-60
2022/07/28 06:37:33;;;;;;;10.25;9.35;;;;;;;37.79;24.74;99404.72;5032493;28;20083;-63
2022/07/28 06:39:59;;;;;;;10.88;9.68;;;;;;;39.38;22.42;99402.66;5031093;28;20025;-58
2022/07/28 06:42:25;;;;;;;10.00;9.10;;;;;;;41.96;19.38;99391.63;5031407;28;20030;-59
2022/07/28 06:44:50;;;;;;;9.80;8.88;;;;;;;44.47;16.80;99397.31;5031508;28;20036;-60
2022/07/28 06:47:17;;;;;;;10.20;9.35;;;;;;;47.00;14.86;99398.81;5042493;28;20029;-60
2022/07/28 06:49:43;;;;;;;9.52;8.63;;;;;;;48.79;12.66;99393.91;5043037;28;20111;-61
2022/07/28 06:52:08;;;;;;;9.15;8.25;;;;;;;49.99;11.80;99390.38;5041519;28;20495;-61
2022/07/28 06:54:34;;;;;;;8.68;8.05;;;;;;;51.41;11.10;99390.28;5031236;28;20045;-66
2022/07/28 06:56:59;;;;;;;9.65;8.65;;;;;;;52.51;10.25;99399.75;5041244;28;20079;-66
2022/07/28 06:59:25;;;;;;;9.52;8.48;;;;;;;53.12;9.36;99400.41;5038762;28;20052;-64
2022/07/28 07:01:50;;;;;;;9.07;8.27;;;;;;;53.44;9.26;99397.16;5050385;28;20029;-63
2022/07/28 07:04:16;;;;;;;10.13;8.77;;;;;;;53.66;9.07;99396.84;5050914;28;20466;-63
2022/07/28 07:06:42;;;;;;;9.68;8.95;;;;;;;53.59;9.30;99396.97;5046426;28;20468;-63
2022/07/28 07:09:08;;;;;;;9.70;8.90;;;;;;;53.88;9.33;99393.69;5040631;28;20055;-62
2022/07/28 07:11:35;;;;;;;9.23;8.43;;;;;;;54.40;9.03;99408.84;5049314;28;20477;-65
2022/07/28 07:14:00;;;;;;;9.00;8.30;;;;;;;54.62;8.13;99394.94;5049867;28;20455;-62
2022/07/28 07:16:26;;;;;;;8.80;8.10;;;;;;;55.02;7.87;99388.47;5031640;28;20042;-63
2022/07/28 07:18:51;;;;;;;9.70;8.90;;;;;;;55.07;8.13;99388.00;5030788;28;20026;-63
2022/07/28 07:21:18;;;;;;;8.90;8.27;;;;;;;55.18;7.89;99394.28;5030292;28;20485;-63
2022/07/28 07:23:44;;;;;;;10.02;9.23;;;;;;;55.57;8.31;99394.69;5034842;28;20029;-63
2022/07/28 07:26:09;;;;;;;10.35;9.45;;;;;;;55.47;7.67;99381.41;5034674;28;20087;-63
2022/07/28 07:28:35;;;;;;;10.38;9.48;;;;;;;55.39;8.23;99388.59;5044385;28;20021;-62
2022/07/28 07:31:00;;;;;;;10.25;9.55;;;;;;;55.29;8.20;99399.81;5043081;28;20313;-62
2022/07/28 07:33:26;;;;;;;9.95;9.00;;;;;;;55.45;8.44;99398.28;5042985;28;20083;-61
2022/07/28 07:35:51;;;;;;;10.60;9.90;;;;;;;55.37;7.93;99383.28;5043994;28;20028;-63
2022/07/28 07:38:17;;;;;;;9.63;8.80;;;;;;;55.18;8.22;99379.94;5041692;28;20272;-62
2022/07/28 07:40:43;;;;;;;9.32;8.43;;;;;;;55.56;7.74;99387.34;5043205;28;20254;-64
2022/07/28 07:43:08;;;;;;;10.98;10.10;;;;;;;55.75;8.30;99382.84;5043764;28;20131;-63
2022/07/28 07:45:34;;;;;;;10.23;9.35;;;;;;;55.61;7.95;99371.66;5043901;28;20033;-62
2022/07/28 07:48:01;;;;;;;9.80;9.00;;;;;;;55.05;8.02;99376.16;5037536;28;20026;-64
2022/07/28 07:50:27;;;;;;;9.70;9.00;;;;;;;54.45;8.79;99371.09;5036820;28;20079;-65
2022/07/28 07:52:53;;;;;;;10.55;9.60;;;;;;;54.13;8.79;99376.13;5028175;28;20033;-61
2022/07/28 07:55:19;;;;;;;9.68;8.82;;;;;;;52.46;9.72;99381.06;5040129;28;20078;-62
2022/07/28 07:57:44;;;;;;;8.97;8.37;;;;;;;49.84;11.94;99380.19;5042264;28;20036;-61
2022/07/28 08:00:10;;;;;;;8.32;7.72;;;;;;;47.52;13.39;99375.63;5032358;28;20321;-63
2022/07/28 08:02:40;;;;;;;8.30;7.60;;;;;;;46.38;14.47;99388.47;5045008;28;20029;-71
2022/07/28 08:05:06;;;;;;;8.50;7.55;;;;;;;46.12;15.02;99365.44;5044949;28;20454;-69
2022/07/28 08:07:32;;;;;;;8.60;7.80;;;;;;;45.20;15.82;99361.16;5032955;28;20124;-64
2022/07/28 08:09:58;;;;;;;8.02;7.32;;;;;;;43.81;17.16;99364.56;5043170;28;20116;-63
2022/07/28 08:12:23;;;;;;;8.10;7.32;;;;;;;42.30;18.65;99361.50;5022731;28;20478;-63
2022/07/28 08:14:49;;;;;;;8.65;7.80;;;;;;;41.16;19.66;99363.41;5049832;28;20390;-63
2022/07/28 08:17:14;;;;;;;8.30;7.57;;;;;;;40.93;20.16;99355.28;5033299;28;20029;-64
2022/07/28 08:19:40;;;;;;;7.97;7.28;;;;;;;40.12;20.72;99341.09;5038618;28;20033;-61
2022/07/28 08:22:05;;;;;;;8.40;7.63;;;;;;;39.21;21.70;99333.47;5046231;28;20025;-67
2022/07/28 08:24:31;;;;;;;7.22;6.60;;;;;;;38.96;21.61;99328.34;5045961;28;20029;-64
2022/07/28 08:26:56;;;;;;;7.70;7.00;;;;;;;38.03;22.79;99320.59;5052767;28;20021;-62
2022/07/28 08:29:22;;;;;;;8.85;7.70;;;;;;;37.01;24.34;99335.88;5037018;28;20366;-63
2022/07/28 08:31:47;;;;;;;7.97;7.38;;;;;;;36.24;25.27;99330.69;5039810;28;20037;-63
2022/07/28 08:34:13;;;;;;;8.68;7.65;;;;;;;36.03;25.94;99313.56;5041144;28;20497;-62
2022/07/28 08:36:39;;;;;;;9.48;7.45;;;;;;;36.10;26.30;99316.75;5042383;28;20041;-65
2022/07/28 08:39:04;;;;;;;8.25;7.40;;;;;;;36.08;25.93;99316.25;5052248;28;20021;-67
2022/07/28 08:41:45;;;;;;;9.40;8.30;;;;;;;35.86;26.11;99312.16;5038857;28;20037;-64
2022/07/28 08:44:17;;;;;;;8.88;7.55;;;;;;;35.05;27.64;99308.41;5052283;28;20036;-66
2022/07/28 08:46:43;;;;;;;8.35;7.55;;;;;;;34.40;28.37;99293.09;5038547;28;20029;-60
2022/07/28 08:49:08;;;;;;;8.35;7.55;;;;;;;34.52;29.00;99309.38;5034979;28;20056;-60
2022/07/28 08:51:36;;;;;;;9.60;7.40;;;;;;;34.62;27.92;99298.13;5053058;28;20025;-63
2022/07/28 08:54:02;;;;;;;8.27;7.53;;;;;;;34.57;28.22;99294.59;5048801;28;20144;-61
2022/07/28 08:56:28;;;;;;;8.32;7.53;;;;;;;34.57;28.42;99273.16;5038865;28;20036;-62
2022/07/28 08:58:55;;;;;;;8.23;7.53;;;;;;;34.77;28.41;99308.22;5050929;28;20103;-64
2022/07/28 09:01:21;;;;;;;8.32;7.43;;;;;;;34.91;28.33;99308.31;5051515;28;20469;-62
2022/07/28 09:03:49;;;;;;;11.40;7.95;;;;;;;34.91;28.42;99307.47;5052311;28;20053;-60
2022/07/28 09:06:16;;;;;;;8.02;7.32;;;;;;;34.72;28.91;99329.69;5038687;28;20037;-60
2022/07/28 09:08:42;;;;;;;9.25;7.93;;;;;;;34.15;29.86;99303.38;5038245;28;20029;-63
2022/07/28 09:11:07;;;;;;;8.75;7.95;;;;;;;33.51;30.92;99306.16;5032580;28;20049;-62
2022/07/28 09:13:34;;;;;;;11.07;8.32;;;;;;;33.01;31.86;99309.00;5046121;28;20064;-62
2022/07/28 09:15:59;;;;;;;9.40;8.48;;;;;;;32.65;32.73;99299.69;5045156;28;20029;-62
2022/07/28 09:18:25;;;;;;;11.00;8.88;;;;;;;32.63;33.27;99309.44;5047167;28;20990;-61
2022/07/28 09:20:51;;;;;;;9.98;8.40;;;;;;;32.99;32.76;99309.25;5052050;28;20041;-61
2022/07/28 09:23:16;;;;;;;8.50;7.40;;;;;;;33.34;31.45;99310.16;5051093;28;20362;-61
2022/07/28 09:25:42;;;;;;;9.05;7.90;;;;;;;33.60;31.78;99298.88;5049089;28;20496;-63
2022/07/28 09:28:13;;;;;;;11.85;7.63;;;;;;;33.75;31.03;99322.06;5047563;28;20030;-63
2022/07/28 09:30:41;;;;;;;15.35;7.57;;;;;;;33.71;31.32;99318.22;5033509;28;20055;-60
2022/07/28 09:33:21;;;;;;;14.45;7.93;;;;;;;33.91;30.64;99308.88;5049896;28;20055;-64
2022/07/28 09:35:53;;;;;;;11.00;7.85;;;;;;;33.97;31.08;99310.50;5051812;28;20036;-63
2022/07/28 09:38:20;;;;;;;11.75;7.75;;;;;;;34.07;30.96;99309.59;5049741;28;20113;-61
2022/07/28 09:41:00;;;;;;;12.95;7.40;;;;;;;34.07;30.52;99315.13;5037661;28;20036;-61
2022/07/28 09:43:43;;;;;;;10.40;7.82;;;;;;;33.98;30.62;99316.88;5037638;28;20025;-64
2022/07/28 09:46:17;;;;;;;8.75;7.65;;;;;;;33.83;30.99;99315.88;5048822;28;20051;-62
2022/07/28 09:48:48;;;;;;;9.23;6.85;;;;;;;34.03;30.52;99301.00;5049036;28;20029;-61
2022/07/28 09:51:17;;;;;;;8.68;6.93;;;;;;;34.10;29.59;99299.81;5035608;28;20033;-60
2022/07/28 09:53:42;;;;;;;8.10;7.30;;;;;;;34.24;29.67;99270.22;5034524;28;20552;-60
2022/07/28 09:56:09;;;;;;;8.68;7.40;;;;;;;34.43;29.79;99278.59;5050535;28;20037;-61
2022/07/28 09:58:35;;;;;;;8.27;7.57;;;;;;;34.51;29.67;99281.91;5049035;28;20182;-61
2022/07/28 10:01:05;;;;;;;8.73;7.78;;;;;;;34.37;29.47;99265.09;5044037;28;20036;-63
2022/07/28 10:03:31;;;;;;;8.40;7.70;;;;;;;34.26;30.22;99283.81;5031617;28;20049;-61
2022/07/28 10:05:57;;;;;;;9.52;8.05;;;;;;;33.97;30.85;99276.34;5051078;28;20735;-61
2022/07/28 10:08:39;;;;;;;10.15;8.73;;;;;;;34.06;30.61;99291.25;5043449;28;20390;-61
2022/07/28 10:11:05;;;;;;;11.18;8.38;;;;;;;33.67;31.63;99289.38;5037858;28;20025;-63
2022/07/28 10:13:30;;;;;;;9.60;8.68;;;;;;;33.19;31.29;99274.19;5041212;28;20059;-68
2022/07/28 10:16:11;;;;;;;9.63;8.52;;;;;;;33.14;31.99;99302.78;5029516;28;20033;-65
2022/07/28 10:18:39;;;;;;;10.13;9.05;;;;;;;32.76;32.50;99278.31;5031692;28;20038;-64
2022/07/28 10:21:13;;;;;;;9.68;8.77;;;;;;;32.98;32.50;99313.16;5044909;28;20025;-62
2022/07/28 10:23:44;;;;;;;9.75;8.85;;;;;;;32.67;33.05;99277.25;5049511;28;20044;-65
2022/07/28 10:26:10;;;;;;;9.27;8.38;;;;;;;32.87;32.01;99309.56;5049755;28;20044;-63
2022/07/28 10:28:40;;;;;;;9.18;8.07;;;;;;;32.96;30.73;99309.03;5049408;28;20350;-63
2022/07/28 10:31:09;;;;;;;9.07;8.27;;;;;;;33.01;31.27;99298.72;5050607;28;20492;-63
2022/07/28 10:33:38;;;;;;;9.70;8.77;;;;;;;33.10;32.15;99298.94;5050900;28;20119;-63
2022/07/28 10:36:05;;;;;;;9.20;8.30;;;;;;;33.15;32.37;99301.66;5051027;28;20036;-63
2022/07/28 10:38:35;;;;;;;9.68;8.20;;;;;;;33.19;31.47;99311.09;5051278;28;20105;-62
2022/07/28 10:41:03;;;;;;;7.85;7.05;;;;;;;33.09;30.34;99322.25;5050872;28;20028;-63
2022/07/28 10:43:30;;;;;;;6.93;6.22;;;;;;;32.95;28.97;99324.00;5043523;28;20469;-63
2022/07/28 10:46:00;;;;;;;6.60;6.00;;;;;;;32.78;28.29;99331.50;5031436;28;20474;-62
2022/07/28 10:48:25;;;;;;;5.97;5.47;;;;;;;32.56;27.92;99328.31;5030717;28;20063;-63
2022/07/28 10:50:53;;;;;;;6.85;5.40;;;;;;;32.55;28.51;99341.31;5029353;28;20033;-66
2022/07/28 10:53:31;;;;;;;6.90;6.30;;;;;;;32.81;29.45;99349.53;5037185;28;20021;-64
2022/07/28 10:56:06;;;;;;;6.10;5.57;;;;;;;33.01;28.54;99343.06;5031407;28;20037;-60
2022/07/28 10:59:10;;;;;;;8.95;6.45;;;;;;;33.10;29.13;99310.03;5036389;28;20033;-59
2022/07/28 11:01:38;;;;;;;6.78;5.97;;;;;;;33.28;29.43;99341.84;5049383;28;20040;-61
2022/07/28 11:04:05;;;;;;;8.23;6.78;;;;;;;33.27;29.73;99339.34;5053381;28;20099;-60
2022/07/28 11:06:35;;;;;;;8.10;7.40;;;;;;;33.16;30.49;99330.25;5054216;28;20036;-60
2022/07/28 11:09:16;;;;;;;8.38;7.25;;;;;;;33.05;30.88;99344.19;5053913;28;20029;-60
2022/07/28 11:11:42;;;;;;;8.43;7.63;;;;;;;32.63;32.00;99353.78;5054702;28;20069;-61
2022/07/28 11:14:30;;;;;;;8.43;7.45;;;;;;;32.74;31.57;99351.78;5044143;28;20482;-62
2022/07/28 11:16:59;;;;;;;10.07;6.45;;;;;;;32.73;30.32;99353.72;5035023;28;20111;-60
2022/07/28 11:19:25;;;;;;;6.78;6.18;;;;;;;32.74;29.83;99343.47;5034759;28;20050;-60
2022/07/28 11:22:20;;;;;;;6.82;6.25;;;;;;;32.98;29.32;99351.97;5034822;28;20087;-60
2022/07/28 11:25:03;;;;;;;7.38;6.75;;;;;;;32.88;30.00;99352.84;5054373;28;20033;-61
2022/07/28 11:27:39;;;;;;;7.30;6.70;;;;;;;32.56;30.53;99367.09;5039780;28;20033;-62
2022/07/28 11:30:27;;;;;;;9.33;7.70;;;;;;;32.44;31.10;99361.88;5034051;28;20116;-62
2022/07/28 11:32:53;;;;;;;7.85;7.15;;;;;;;32.12;31.74;99354.69;5045160;28;20032;-61
2022/07/28 11:35:22;;;;;;;7.78;7.07;;;;;;;31.97;32.58;99374.91;5054421;28;20064;-61